Airfield :







YOU CAN JOIN US ON...

 
LOGIN :

Register | Disclaimer

   EN    FR    IT 

 









Legend :    VFR   Marginal VFR   IFR   Intensive IFR   Very Intensive IFR
Visi :
Ceiling :
>= 8 km
>= 3000ft
5 to 8 km
1000 to 3000 ft
1500m to 5 km
500 to 1000 ft
800 to 1500m
200 to 500 ft
< 800m
< 200 ft
Symbols :   Thunderstorms  Fog  Heavy snow  Heavy precipitations  Wind > 20 kt







- Airport Elevation : 40 ft
- IATA code : YRF


CYCA - Cartwright

CURRENT METAR :
  • 242100Z AUTO 28008G15KT 5SM -RA BR OVC017 06/05 A2963 RMK SLP037

EXPIRED METARs :
  • 242056Z AUTO 29008G16KT 5SM -RA BR OVC017 06/05 A2963 RMK SLP035
  • 242000Z AUTO 28011G16KT 8SM RA OVC017 07/05 A2960 RMK SLP025
  • 241928Z AUTO 28008KT 9SM RA SCT015 BKN020 OVC025 07/05 A2958 RMK SLP019
  • 241900Z AUTO 29012G20KT 9SM -RA FEW018 OVC025 07/05 A2956 RMK SLP011
  • 241849Z AUTO 29013G20KT 9SM -RA SCT018 OVC025 07/05 A2955 RMK SLP008
  • 241829Z AUTO 29015G21KT 9SM -RA OVC018 07/04 A2954 RMK SLP004

TAF TAF CYCA
Valid from the 24 at 20:00 until the 25 at 08:00 UTC


241938Z 2420/2508 29012G22KT P6SM OVC025
TEMPO 2420/2508 4SM -RA BR SCT008 OVC015
BECMG 2501/2503 27010KT RMK FCST BASED ON AUTO OBS. NXT FCST BY 250200Z
CZQX FIR / North America



MET'MAP, your aeronautical weather chart ! - Copyright ORBIFLY December 2007 - Disclaimer

ORBIFLY MET'MAP TEAM :

Programming & Development : Alexandra Zaïnal
Concept & Development : Baudouin d'Aumeries
Co-Development & Prog : Marc-Olivier Méhu
Technical & hardware support : Manuel Goepfert

Contact : metmap@orbifly.com




SOURCES & CREDITS :

   NOAA